sensor_id;sensor_type;location;lat;lon;timestamp;P1;durP1;ratioP1;P2;durP2;ratioP2
36221;SDS011;22266;52.340;4.962;2022-08-19T00:01:49;5.75;;;5.75;;
36221;SDS011;22266;52.340;4.962;2022-08-19T00:04:20;5.75;;;4.50;;
36221;SDS011;22266;52.340;4.962;2022-08-19T00:06:48;6.25;;;6.25;;
36221;SDS011;22266;52.340;4.962;2022-08-19T00:09:16;8.50;;;8.00;;
36221;SDS011;22266;52.340;4.962;2022-08-19T00:11:43;10.25;;;8.00;;
36221;SDS011;22266;52.340;4.962;2022-08-19T00:14:10;9.75;;;8.50;;
36221;SDS011;22266;52.340;4.962;2022-08-19T00:16:39;9.75;;;7.25;;
36221;SDS011;22266;52.340;4.962;2022-08-19T00:19:07;10.00;;;8.75;;
36221;SDS011;22266;52.340;4.962;2022-08-19T00:21:34;8.00;;;7.25;;
36221;SDS011;22266;52.340;4.962;2022-08-19T00:24:08;8.75;;;7.75;;
36221;SDS011;22266;52.340;4.962;2022-08-19T00:26:37;6.25;;;3.75;;
36221;SDS011;22266;52.340;4.962;2022-08-19T00:29:05;7.50;;;3.75;;
36221;SDS011;22266;52.340;4.962;2022-08-19T00:31:38;7.25;;;7.25;;
36221;SDS011;22266;52.340;4.962;2022-08-19T00:34:04;7.00;;;7.00;;
36221;SDS011;22266;52.340;4.962;2022-08-19T00:36:31;11.50;;;9.75;;
36221;SDS011;22266;52.340;4.962;2022-08-19T00:38:59;7.00;;;7.00;;
36221;SDS011;22266;52.340;4.962;2022-08-19T00:41:26;5.50;;;5.50;;
36221;SDS011;22266;52.340;4.962;2022-08-19T00:43:57;7.75;;;7.75;;
36221;SDS011;22266;52.340;4.962;2022-08-19T00:46:33;7.00;;;7.00;;
36221;SDS011;22266;52.340;4.962;2022-08-19T00:49:04;8.75;;;8.00;;
36221;SDS011;22266;52.340;4.962;2022-08-19T00:51:35;7.00;;;7.00;;
36221;SDS011;22266;52.340;4.962;2022-08-19T00:54:02;8.00;;;7.75;;
36221;SDS011;22266;52.340;4.962;2022-08-19T00:56:30;5.00;;;5.00;;
36221;SDS011;22266;52.340;4.962;2022-08-19T00:58:57;6.00;;;6.00;;
36221;SDS011;22266;52.340;4.962;2022-08-19T01:01:25;7.00;;;6.25;;
36221;SDS011;22266;52.340;4.962;2022-08-19T01:03:51;6.75;;;6.75;;
36221;SDS011;22266;52.340;4.962;2022-08-19T01:06:23;7.75;;;7.75;;
36221;SDS011;22266;52.340;4.962;2022-08-19T01:08:51;7.00;;;7.00;;
36221;SDS011;22266;52.340;4.962;2022-08-19T01:11:17;9.75;;;8.00;;
36221;SDS011;22266;52.340;4.962;2022-08-19T01:13:44;7.25;;;7.00;;
36221;SDS011;22266;52.340;4.962;2022-08-19T01:16:14;8.50;;;7.75;;
36221;SDS011;22266;52.340;4.962;2022-08-19T01:18:44;9.75;;;8.25;;
36221;SDS011;22266;52.340;4.962;2022-08-19T01:21:19;11.25;;;11.00;;
36221;SDS011;22266;52.340;4.962;2022-08-19T01:23:52;12.50;;;12.00;;
36221;SDS011;22266;52.340;4.962;2022-08-19T01:26:21;12.50;;;11.25;;
36221;SDS011;22266;52.340;4.962;2022-08-19T01:28:52;13.25;;;13.00;;
36221;SDS011;22266;52.340;4.962;2022-08-19T01:31:26;12.25;;;11.50;;
36221;SDS011;22266;52.340;4.962;2022-08-19T01:33:58;13.50;;;12.75;;
36221;SDS011;22266;52.340;4.962;2022-08-19T01:36:31;14.50;;;12.75;;
36221;SDS011;22266;52.340;4.962;2022-08-19T01:39:00;13.25;;;11.00;;
36221;SDS011;22266;52.340;4.962;2022-08-19T01:41:30;14.50;;;13.50;;
36221;SDS011;22266;52.340;4.962;2022-08-19T01:43:56;12.00;;;11.00;;
36221;SDS011;22266;52.340;4.962;2022-08-19T01:46:43;13.25;;;12.75;;
36221;SDS011;22266;52.340;4.962;2022-08-19T01:49:10;19.00;;;16.50;;
36221;SDS011;22266;52.340;4.962;2022-08-19T01:51:37;15.00;;;14.00;;
36221;SDS011;22266;52.340;4.962;2022-08-19T01:54:06;17.75;;;16.50;;
36221;SDS011;22266;52.340;4.962;2022-08-19T01:56:33;13.75;;;13.00;;
36221;SDS011;22266;52.340;4.962;2022-08-19T01:59:01;17.00;;;15.00;;
36221;SDS011;22266;52.340;4.962;2022-08-19T02:01:42;15.50;;;14.75;;
36221;SDS011;22266;52.340;4.962;2022-08-19T02:04:09;14.75;;;12.00;;
36221;SDS011;22266;52.340;4.962;2022-08-19T02:06:36;15.25;;;15.00;;
36221;SDS011;22266;52.340;4.962;2022-08-19T02:09:03;16.00;;;13.50;;
36221;SDS011;22266;52.340;4.962;2022-08-19T02:11:33;15.00;;;13.25;;
36221;SDS011;22266;52.340;4.962;2022-08-19T02:14:03;14.00;;;14.00;;
36221;SDS011;22266;52.340;4.962;2022-08-19T02:16:32;17.25;;;16.50;;
36221;SDS011;22266;52.340;4.962;2022-08-19T02:18:59;15.00;;;15.00;;
36221;SDS011;22266;52.340;4.962;2022-08-19T02:21:29;19.75;;;17.00;;
36221;SDS011;22266;52.340;4.962;2022-08-19T02:23:56;20.00;;;15.50;;
36221;SDS011;22266;52.340;4.962;2022-08-19T02:26:23;11.00;;;10.25;;
36221;SDS011;22266;52.340;4.962;2022-08-19T02:28:49;16.75;;;14.25;;
36221;SDS011;22266;52.340;4.962;2022-08-19T02:31:18;14.25;;;13.50;;
36221;SDS011;22266;52.340;4.962;2022-08-19T02:33:46;16.00;;;13.00;;
36221;SDS011;22266;52.340;4.962;2022-08-19T02:36:14;12.50;;;12.25;;
36221;SDS011;22266;52.340;4.962;2022-08-19T02:38:46;14.00;;;13.75;;
36221;SDS011;22266;52.340;4.962;2022-08-19T02:41:24;14.50;;;13.25;;
36221;SDS011;22266;52.340;4.962;2022-08-19T02:43:53;13.00;;;11.00;;
36221;SDS011;22266;52.340;4.962;2022-08-19T02:46:41;11.75;;;10.25;;
36221;SDS011;22266;52.340;4.962;2022-08-19T02:49:09;14.50;;;14.50;;
36221;SDS011;22266;52.340;4.962;2022-08-19T02:51:36;12.00;;;12.00;;
36221;SDS011;22266;52.340;4.962;2022-08-19T02:54:07;13.25;;;13.25;;
36221;SDS011;22266;52.340;4.962;2022-08-19T02:56:38;13.50;;;12.25;;
36221;SDS011;22266;52.340;4.962;2022-08-19T02:59:06;11.75;;;10.00;;
36221;SDS011;22266;52.340;4.962;2022-08-19T03:01:36;8.75;;;8.75;;
36221;SDS011;22266;52.340;4.962;2022-08-19T03:04:04;8.50;;;8.50;;
36221;SDS011;22266;52.340;4.962;2022-08-19T03:06:35;13.00;;;12.00;;
36221;SDS011;22266;52.340;4.962;2022-08-19T03:09:02;11.25;;;10.25;;
36221;SDS011;22266;52.340;4.962;2022-08-19T03:11:30;12.00;;;10.25;;
36221;SDS011;22266;52.340;4.962;2022-08-19T03:13:58;12.50;;;12.00;;
36221;SDS011;22266;52.340;4.962;2022-08-19T03:16:26;9.75;;;8.75;;
36221;SDS011;22266;52.340;4.962;2022-08-19T03:18:58;11.00;;;10.25;;
36221;SDS011;22266;52.340;4.962;2022-08-19T03:21:31;12.75;;;12.00;;
36221;SDS011;22266;52.340;4.962;2022-08-19T03:24:01;14.00;;;12.00;;
36221;SDS011;22266;52.340;4.962;2022-08-19T03:26:29;14.25;;;12.50;;
36221;SDS011;22266;52.340;4.962;2022-08-19T03:28:56;15.00;;;14.25;;
36221;SDS011;22266;52.340;4.962;2022-08-19T03:31:25;14.25;;;11.50;;
36221;SDS011;22266;52.340;4.962;2022-08-19T03:34:13;11.50;;;10.75;;
36221;SDS011;22266;52.340;4.962;2022-08-19T03:36:44;13.75;;;11.75;;
36221;SDS011;22266;52.340;4.962;2022-08-19T03:39:11;11.25;;;10.25;;
36221;SDS011;22266;52.340;4.962;2022-08-19T03:41:39;13.50;;;13.00;;
36221;SDS011;22266;52.340;4.962;2022-08-19T03:44:11;12.25;;;11.75;;
36221;SDS011;22266;52.340;4.962;2022-08-19T03:46:51;11.75;;;11.75;;
36221;SDS011;22266;52.340;4.962;2022-08-19T03:49:21;15.50;;;13.00;;
36221;SDS011;22266;52.340;4.962;2022-08-19T03:51:54;16.50;;;14.00;;
36221;SDS011;22266;52.340;4.962;2022-08-19T03:54:23;13.00;;;13.00;;
36221;SDS011;22266;52.340;4.962;2022-08-19T03:56:51;16.00;;;14.75;;
36221;SDS011;22266;52.340;4.962;2022-08-19T03:59:27;14.67;;;14.33;;
36221;SDS011;22266;52.340;4.962;2022-08-19T04:01:57;12.00;;;12.00;;
36221;SDS011;22266;52.340;4.962;2022-08-19T04:04:26;14.00;;;12.25;;
36221;SDS011;22266;52.340;4.962;2022-08-19T04:06:54;14.25;;;14.00;;
36221;SDS011;22266;52.340;4.962;2022-08-19T04:09:22;10.50;;;10.25;;
36221;SDS011;22266;52.340;4.962;2022-08-19T04:11:50;13.00;;;10.75;;
36221;SDS011;22266;52.340;4.962;2022-08-19T04:14:22;15.50;;;13.25;;
36221;SDS011;22266;52.340;4.962;2022-08-19T04:16:51;18.75;;;15.50;;
36221;SDS011;22266;52.340;4.962;2022-08-19T04:19:19;13.50;;;13.50;;
36221;SDS011;22266;52.340;4.962;2022-08-19T04:21:50;15.75;;;13.50;;
36221;SDS011;22266;52.340;4.962;2022-08-19T04:24:18;16.25;;;14.00;;
36221;SDS011;22266;52.340;4.962;2022-08-19T04:26:45;20.00;;;17.00;;
36221;SDS011;22266;52.340;4.962;2022-08-19T04:29:14;22.25;;;16.75;;
36221;SDS011;22266;52.340;4.962;2022-08-19T04:31:43;22.00;;;20.67;;
36221;SDS011;22266;52.340;4.962;2022-08-19T04:34:11;17.75;;;17.75;;
36221;SDS011;22266;52.340;4.962;2022-08-19T04:36:40;16.33;;;14.67;;
36221;SDS011;22266;52.340;4.962;2022-08-19T04:39:09;20.33;;;20.00;;
36221;SDS011;22266;52.340;4.962;2022-08-19T04:41:37;15.75;;;13.25;;
36221;SDS011;22266;52.340;4.962;2022-08-19T04:44:23;25.25;;;22.00;;
36221;SDS011;22266;52.340;4.962;2022-08-19T04:46:49;20.33;;;18.67;;
36221;SDS011;22266;52.340;4.962;2022-08-19T04:49:18;20.67;;;19.33;;
36221;SDS011;22266;52.340;4.962;2022-08-19T04:51:48;20.75;;;18.50;;
36221;SDS011;22266;52.340;4.962;2022-08-19T04:54:17;20.25;;;17.25;;
36221;SDS011;22266;52.340;4.962;2022-08-19T04:57:04;21.33;;;19.67;;
36221;SDS011;22266;52.340;4.962;2022-08-19T04:59:33;12.00;;;12.00;;
36221;SDS011;22266;52.340;4.962;2022-08-19T05:02:00;19.33;;;19.33;;
36221;SDS011;22266;52.340;4.962;2022-08-19T05:04:27;23.00;;;20.67;;
36221;SDS011;22266;52.340;4.962;2022-08-19T05:06:56;26.67;;;25.33;;
36221;SDS011;22266;52.340;4.962;2022-08-19T05:09:26;25.33;;;21.33;;
36221;SDS011;22266;52.340;4.962;2022-08-19T05:12:14;25.67;;;23.33;;
36221;SDS011;22266;52.340;4.962;2022-08-19T05:14:41;28.67;;;23.00;;
36221;SDS011;22266;52.340;4.962;2022-08-19T05:17:08;22.00;;;21.67;;
36221;SDS011;22266;52.340;4.962;2022-08-19T05:19:53;29.33;;;26.67;;
36221;SDS011;22266;52.340;4.962;2022-08-19T05:22:38;28.00;;;25.67;;
36221;SDS011;22266;52.340;4.962;2022-08-19T05:25:06;28.00;;;25.00;;
36221;SDS011;22266;52.340;4.962;2022-08-19T05:27:39;20.67;;;20.67;;
36221;SDS011;22266;52.340;4.962;2022-08-19T05:30:06;22.00;;;19.33;;
36221;SDS011;22266;52.340;4.962;2022-08-19T05:32:33;21.50;;;20.50;;
36221;SDS011;22266;52.340;4.962;2022-08-19T05:35:00;23.25;;;22.25;;
36221;SDS011;22266;52.340;4.962;2022-08-19T05:37:26;25.33;;;22.67;;
36221;SDS011;22266;52.340;4.962;2022-08-19T05:39:53;26.00;;;21.75;;
36221;SDS011;22266;52.340;4.962;2022-08-19T05:42:21;22.50;;;19.75;;
36221;SDS011;22266;52.340;4.962;2022-08-19T05:44:49;27.33;;;23.00;;
36221;SDS011;22266;52.340;4.962;2022-08-19T05:47:17;18.50;;;18.50;;
36221;SDS011;22266;52.340;4.962;2022-08-19T05:49:45;20.50;;;20.50;;
36221;SDS011;22266;52.340;4.962;2022-08-19T05:52:13;28.00;;;27.33;;
36221;SDS011;22266;52.340;4.962;2022-08-19T05:54:44;31.67;;;27.67;;
36221;SDS011;22266;52.340;4.962;2022-08-19T05:57:17;27.00;;;25.33;;
36221;SDS011;22266;52.340;4.962;2022-08-19T05:59:44;22.25;;;20.00;;
36221;SDS011;22266;52.340;4.962;2022-08-19T06:02:24;27.67;;;25.33;;
36221;SDS011;22266;52.340;4.962;2022-08-19T06:04:51;27.00;;;23.33;;
36221;SDS011;22266;52.340;4.962;2022-08-19T06:07:18;31.67;;;29.67;;
36221;SDS011;22266;52.340;4.962;2022-08-19T06:09:45;25.00;;;23.50;;
36221;SDS011;22266;52.340;4.962;2022-08-19T06:12:25;31.00;;;29.67;;
36221;SDS011;22266;52.340;4.962;2022-08-19T06:14:54;33.33;;;30.00;;
36221;SDS011;22266;52.340;4.962;2022-08-19T06:17:27;37.33;;;33.67;;
36221;SDS011;22266;52.340;4.962;2022-08-19T06:19:56;27.67;;;27.67;;
36221;SDS011;22266;52.340;4.962;2022-08-19T06:22:23;25.00;;;23.50;;
36221;SDS011;22266;52.340;4.962;2022-08-19T06:24:49;30.00;;;26.25;;
36221;SDS011;22266;52.340;4.962;2022-08-19T06:27:18;47.75;;;41.00;;
36221;SDS011;22266;52.340;4.962;2022-08-19T06:29:46;35.67;;;31.67;;
36221;SDS011;22266;52.340;4.962;2022-08-19T06:32:14;43.00;;;36.67;;
36221;SDS011;22266;52.340;4.962;2022-08-19T06:34:42;42.33;;;37.33;;
36221;SDS011;22266;52.340;4.962;2022-08-19T06:37:08;41.00;;;36.33;;
36221;SDS011;22266;52.340;4.962;2022-08-19T06:39:36;42.67;;;38.00;;
36221;SDS011;22266;52.340;4.962;2022-08-19T06:42:06;33.67;;;30.67;;
36221;SDS011;22266;52.340;4.962;2022-08-19T06:44:37;36.67;;;30.00;;
36221;SDS011;22266;52.340;4.962;2022-08-19T06:47:09;44.25;;;37.75;;
36221;SDS011;22266;52.340;4.962;2022-08-19T06:49:40;39.00;;;34.00;;
36221;SDS011;22266;52.340;4.962;2022-08-19T06:52:07;44.00;;;39.00;;
36221;SDS011;22266;52.340;4.962;2022-08-19T06:54:39;32.00;;;28.67;;
36221;SDS011;22266;52.340;4.962;2022-08-19T06:57:22;29.00;;;24.67;;
36221;SDS011;22266;52.340;4.962;2022-08-19T06:59:49;32.33;;;26.00;;
36221;SDS011;22266;52.340;4.962;2022-08-19T07:02:16;39.00;;;30.67;;
36221;SDS011;22266;52.340;4.962;2022-08-19T07:04:43;33.67;;;30.67;;
36221;SDS011;22266;52.340;4.962;2022-08-19T07:07:11;41.00;;;34.67;;
36221;SDS011;22266;52.340;4.962;2022-08-19T07:09:46;29.67;;;27.33;;
36221;SDS011;22266;52.340;4.962;2022-08-19T07:12:27;35.00;;;30.33;;
36221;SDS011;22266;52.340;4.962;2022-08-19T07:14:57;44.67;;;32.67;;
36221;SDS011;22266;52.340;4.962;2022-08-19T07:17:24;36.33;;;33.33;;
36221;SDS011;22266;52.340;4.962;2022-08-19T07:19:51;46.00;;;37.67;;
36221;SDS011;22266;52.340;4.962;2022-08-19T07:22:20;39.00;;;32.00;;
36221;SDS011;22266;52.340;4.962;2022-08-19T07:24:49;40.00;;;36.67;;
36221;SDS011;22266;52.340;4.962;2022-08-19T07:27:17;35.33;;;31.67;;
36221;SDS011;22266;52.340;4.962;2022-08-19T07:29:50;46.67;;;37.33;;
36221;SDS011;22266;52.340;4.962;2022-08-19T07:32:22;42.67;;;31.33;;
36221;SDS011;22266;52.340;4.962;2022-08-19T07:34:49;46.33;;;38.67;;
36221;SDS011;22266;52.340;4.962;2022-08-19T07:37:15;30.33;;;28.00;;
36221;SDS011;22266;52.340;4.962;2022-08-19T07:39:42;30.33;;;28.33;;
36221;SDS011;22266;52.340;4.962;2022-08-19T07:42:09;36.67;;;33.00;;
36221;SDS011;22266;52.340;4.962;2022-08-19T07:44:39;34.67;;;30.00;;
36221;SDS011;22266;52.340;4.962;2022-08-19T07:47:07;33.00;;;31.00;;
36221;SDS011;22266;52.340;4.962;2022-08-19T07:49:53;30.00;;;28.75;;
36221;SDS011;22266;52.340;4.962;2022-08-19T07:52:20;30.00;;;28.00;;
36221;SDS011;22266;52.340;4.962;2022-08-19T07:54:46;25.50;;;23.25;;
36221;SDS011;22266;52.340;4.962;2022-08-19T07:57:13;43.67;;;36.33;;
36221;SDS011;22266;52.340;4.962;2022-08-19T07:59:39;30.00;;;24.25;;
36221;SDS011;22266;52.340;4.962;2022-08-19T08:02:06;44.00;;;36.67;;
36221;SDS011;22266;52.340;4.962;2022-08-19T08:04:34;34.00;;;30.00;;
36221;SDS011;22266;52.340;4.962;2022-08-19T08:07:19;41.00;;;36.00;;
36221;SDS011;22266;52.340;4.962;2022-08-19T08:10:11;32.50;;;29.00;;
36221;SDS011;22266;52.340;4.962;2022-08-19T08:12:46;32.50;;;27.50;;
36221;SDS011;22266;52.340;4.962;2022-08-19T08:15:33;29.00;;;25.00;;
36221;SDS011;22266;52.340;4.962;2022-08-19T08:18:07;28.50;;;24.75;;
36221;SDS011;22266;52.340;4.962;2022-08-19T08:20:34;27.00;;;23.00;;
36221;SDS011;22266;52.340;4.962;2022-08-19T08:23:01;20.00;;;19.25;;
36221;SDS011;22266;52.340;4.962;2022-08-19T08:25:46;37.50;;;33.50;;
36221;SDS011;22266;52.340;4.962;2022-08-19T08:28:15;31.00;;;29.50;;
36221;SDS011;22266;52.340;4.962;2022-08-19T08:30:43;26.00;;;24.75;;
36221;SDS011;22266;52.340;4.962;2022-08-19T08:33:11;22.75;;;21.00;;
36221;SDS011;22266;52.340;4.962;2022-08-19T08:35:39;29.25;;;25.50;;
36221;SDS011;22266;52.340;4.962;2022-08-19T08:38:11;25.75;;;23.50;;
36221;SDS011;22266;52.340;4.962;2022-08-19T08:43:21;16.50;;;16.00;;
36221;SDS011;22266;52.340;4.962;2022-08-19T08:46:11;21.25;;;19.00;;
36221;SDS011;22266;52.340;4.962;2022-08-19T08:49:17;17.25;;;14.75;;
36221;SDS011;22266;52.340;4.962;2022-08-19T08:51:47;25.75;;;23.50;;
36221;SDS011;22266;52.340;4.962;2022-08-19T08:54:26;21.75;;;21.75;;
36221;SDS011;22266;52.340;4.962;2022-08-19T08:57:02;18.50;;;15.75;;
36221;SDS011;22266;52.340;4.962;2022-08-19T08:59:31;15.50;;;15.50;;
36221;SDS011;22266;52.340;4.962;2022-08-19T09:02:02;19.50;;;18.50;;
36221;SDS011;22266;52.340;4.962;2022-08-19T09:04:29;24.25;;;23.00;;
36221;SDS011;22266;52.340;4.962;2022-08-19T09:09:45;20.00;;;20.00;;
36221;SDS011;22266;52.340;4.962;2022-08-19T09:12:18;17.50;;;16.25;;
36221;SDS011;22266;52.340;4.962;2022-08-19T09:14:57;22.50;;;19.75;;
36221;SDS011;22266;52.340;4.962;2022-08-19T09:17:28;15.75;;;14.00;;
36221;SDS011;22266;52.340;4.962;2022-08-19T09:22:35;10.00;;;9.75;;
36221;SDS011;22266;52.340;4.962;2022-08-19T09:25:04;15.00;;;15.00;;
36221;SDS011;22266;52.340;4.962;2022-08-19T09:27:31;16.75;;;16.75;;
36221;SDS011;22266;52.340;4.962;2022-08-19T09:30:14;14.50;;;14.00;;
36221;SDS011;22266;52.340;4.962;2022-08-19T09:32:44;11.50;;;10.00;;
36221;SDS011;22266;52.340;4.962;2022-08-19T09:35:18;17.50;;;13.50;;
36221;SDS011;22266;52.340;4.962;2022-08-19T09:37:48;14.50;;;12.00;;
36221;SDS011;22266;52.340;4.962;2022-08-19T09:40:20;11.25;;;10.25;;
36221;SDS011;22266;52.340;4.962;2022-08-19T09:42:49;9.00;;;8.75;;
36221;SDS011;22266;52.340;4.962;2022-08-19T09:45:19;10.50;;;10.50;;
36221;SDS011;22266;52.340;4.962;2022-08-19T09:47:48;12.00;;;11.75;;
36221;SDS011;22266;52.340;4.962;2022-08-19T09:50:20;14.50;;;13.50;;
36221;SDS011;22266;52.340;4.962;2022-08-19T09:52:47;9.25;;;9.25;;
36221;SDS011;22266;52.340;4.962;2022-08-19T09:55:23;13.75;;;11.00;;
36221;SDS011;22266;52.340;4.962;2022-08-19T09:58:00;10.00;;;10.00;;
36221;SDS011;22266;52.340;4.962;2022-08-19T10:00:28;15.25;;;12.00;;
36221;SDS011;22266;52.340;4.962;2022-08-19T10:02:55;11.75;;;11.50;;
36221;SDS011;22266;52.340;4.962;2022-08-19T10:05:21;11.25;;;10.00;;
36221;SDS011;22266;52.340;4.962;2022-08-19T10:08:07;14.00;;;12.50;;
36221;SDS011;22266;52.340;4.962;2022-08-19T10:10:39;12.75;;;11.50;;
36221;SDS011;22266;52.340;4.962;2022-08-19T10:13:13;12.50;;;12.50;;
36221;SDS011;22266;52.340;4.962;2022-08-19T10:15:41;9.00;;;9.00;;
36221;SDS011;22266;52.340;4.962;2022-08-19T10:18:12;9.50;;;9.00;;
36221;SDS011;22266;52.340;4.962;2022-08-19T10:20:38;13.00;;;11.75;;
36221;SDS011;22266;52.340;4.962;2022-08-19T10:23:05;12.75;;;12.00;;
36221;SDS011;22266;52.340;4.962;2022-08-19T10:25:33;14.00;;;14.00;;
36221;SDS011;22266;52.340;4.962;2022-08-19T10:28:00;8.75;;;8.75;;
36221;SDS011;22266;52.340;4.962;2022-08-19T10:30:27;10.25;;;10.00;;
36221;SDS011;22266;52.340;4.962;2022-08-19T10:32:53;7.25;;;7.00;;
36221;SDS011;22266;52.340;4.962;2022-08-19T10:35:20;9.00;;;9.00;;
36221;SDS011;22266;52.340;4.962;2022-08-19T10:37:48;13.00;;;11.00;;
36221;SDS011;22266;52.340;4.962;2022-08-19T10:40:22;11.75;;;11.75;;
36221;SDS011;22266;52.340;4.962;2022-08-19T10:42:49;8.25;;;8.25;;
36221;SDS011;22266;52.340;4.962;2022-08-19T10:45:15;10.00;;;9.50;;
36221;SDS011;22266;52.340;4.962;2022-08-19T10:47:42;10.25;;;8.50;;
36221;SDS011;22266;52.340;4.962;2022-08-19T10:50:09;9.75;;;9.75;;
36221;SDS011;22266;52.340;4.962;2022-08-19T10:52:55;11.50;;;9.75;;
36221;SDS011;22266;52.340;4.962;2022-08-19T10:55:23;9.00;;;8.00;;
36221;SDS011;22266;52.340;4.962;2022-08-19T10:58:18;12.50;;;11.75;;
36221;SDS011;22266;52.340;4.962;2022-08-19T11:00:52;12.00;;;11.00;;
36221;SDS011;22266;52.340;4.962;2022-08-19T11:03:21;6.75;;;6.75;;
36221;SDS011;22266;52.340;4.962;2022-08-19T11:08:45;9.75;;;9.25;;
36221;SDS011;22266;52.340;4.962;2022-08-19T11:11:12;8.75;;;8.00;;
36221;SDS011;22266;52.340;4.962;2022-08-19T11:13:39;8.00;;;8.00;;
36221;SDS011;22266;52.340;4.962;2022-08-19T11:16:09;9.50;;;8.25;;
36221;SDS011;22266;52.340;4.962;2022-08-19T11:18:40;6.50;;;6.50;;
36221;SDS011;22266;52.340;4.962;2022-08-19T11:21:14;6.75;;;6.00;;
36221;SDS011;22266;52.340;4.962;2022-08-19T11:23:43;7.25;;;5.75;;
36221;SDS011;22266;52.340;4.962;2022-08-19T11:26:11;9.25;;;9.00;;
36221;SDS011;22266;52.340;4.962;2022-08-19T11:28:39;8.25;;;8.25;;
36221;SDS011;22266;52.340;4.962;2022-08-19T11:31:10;5.00;;;5.00;;
36221;SDS011;22266;52.340;4.962;2022-08-19T11:33:42;5.25;;;4.75;;
36221;SDS011;22266;52.340;4.962;2022-08-19T11:36:13;5.00;;;5.00;;
36221;SDS011;22266;52.340;4.962;2022-08-19T11:38:40;8.25;;;7.50;;
36221;SDS011;22266;52.340;4.962;2022-08-19T11:41:07;6.50;;;6.50;;
36221;SDS011;22266;52.340;4.962;2022-08-19T11:43:34;6.75;;;6.00;;
36221;SDS011;22266;52.340;4.962;2022-08-19T11:46:06;6.50;;;6.50;;
36221;SDS011;22266;52.340;4.962;2022-08-19T11:48:35;11.00;;;10.50;;
36221;SDS011;22266;52.340;4.962;2022-08-19T11:51:03;5.00;;;4.25;;
36221;SDS011;22266;52.340;4.962;2022-08-19T11:53:32;4.50;;;4.50;;
36221;SDS011;22266;52.340;4.962;2022-08-19T11:56:00;4.25;;;4.25;;
36221;SDS011;22266;52.340;4.962;2022-08-19T11:58:27;7.25;;;7.25;;
36221;SDS011;22266;52.340;4.962;2022-08-19T12:00:53;12.25;;;8.00;;
36221;SDS011;22266;52.340;4.962;2022-08-19T12:03:20;7.25;;;7.25;;
36221;SDS011;22266;52.340;4.962;2022-08-19T12:05:46;4.25;;;4.25;;
36221;SDS011;22266;52.340;4.962;2022-08-19T12:08:13;6.00;;;5.00;;
36221;SDS011;22266;52.340;4.962;2022-08-19T12:10:41;7.50;;;5.00;;
36221;SDS011;22266;52.340;4.962;2022-08-19T12:13:09;5.50;;;5.50;;
36221;SDS011;22266;52.340;4.962;2022-08-19T12:15:36;4.00;;;4.00;;
36221;SDS011;22266;52.340;4.962;2022-08-19T12:18:04;5.75;;;5.75;;
36221;SDS011;22266;52.340;4.962;2022-08-19T12:20:31;5.25;;;5.25;;
36221;SDS011;22266;52.340;4.962;2022-08-19T12:23:02;4.00;;;4.00;;
36221;SDS011;22266;52.340;4.962;2022-08-19T12:25:29;4.75;;;4.75;;
36221;SDS011;22266;52.340;4.962;2022-08-19T12:27:57;5.00;;;4.25;;
36221;SDS011;22266;52.340;4.962;2022-08-19T12:30:24;3.75;;;3.75;;
36221;SDS011;22266;52.340;4.962;2022-08-19T12:32:51;4.00;;;3.00;;
36221;SDS011;22266;52.340;4.962;2022-08-19T12:35:17;1.50;;;1.50;;
36221;SDS011;22266;52.340;4.962;2022-08-19T12:37:47;2.50;;;2.25;;
36221;SDS011;22266;52.340;4.962;2022-08-19T12:40:23;2.75;;;2.75;;
36221;SDS011;22266;52.340;4.962;2022-08-19T12:42:51;3.25;;;3.00;;
36221;SDS011;22266;52.340;4.962;2022-08-19T12:45:18;3.00;;;3.00;;
36221;SDS011;22266;52.340;4.962;2022-08-19T12:47:46;2.00;;;2.00;;
36221;SDS011;22266;52.340;4.962;2022-08-19T12:50:13;2.50;;;2.50;;
36221;SDS011;22266;52.340;4.962;2022-08-19T12:52:39;1.00;;;1.00;;
36221;SDS011;22266;52.340;4.962;2022-08-19T12:55:08;2.00;;;2.00;;
36221;SDS011;22266;52.340;4.962;2022-08-19T12:57:35;1.00;;;1.00;;
36221;SDS011;22266;52.340;4.962;2022-08-19T13:00:06;2.25;;;2.25;;
36221;SDS011;22266;52.340;4.962;2022-08-19T13:02:39;2.00;;;2.00;;
36221;SDS011;22266;52.340;4.962;2022-08-19T13:05:08;2.00;;;2.00;;
36221;SDS011;22266;52.340;4.962;2022-08-19T13:07:37;1.00;;;1.00;;
36221;SDS011;22266;52.340;4.962;2022-08-19T13:10:05;1.00;;;1.00;;
36221;SDS011;22266;52.340;4.962;2022-08-19T13:12:33;1.00;;;1.00;;
36221;SDS011;22266;52.340;4.962;2022-08-19T13:14:59;2.00;;;2.00;;
36221;SDS011;22266;52.340;4.962;2022-08-19T13:17:26;1.00;;;1.00;;
36221;SDS011;22266;52.340;4.962;2022-08-19T13:19:53;1.00;;;1.00;;
36221;SDS011;22266;52.340;4.962;2022-08-19T13:22:19;1.75;;;1.75;;
36221;SDS011;22266;52.340;4.962;2022-08-19T13:24:46;1.25;;;1.25;;
36221;SDS011;22266;52.340;4.962;2022-08-19T13:27:13;2.00;;;2.00;;
36221;SDS011;22266;52.340;4.962;2022-08-19T13:29:40;1.00;;;1.00;;
36221;SDS011;22266;52.340;4.962;2022-08-19T13:32:26;1.00;;;1.00;;
36221;SDS011;22266;52.340;4.962;2022-08-19T13:35:11;1.50;;;1.00;;
36221;SDS011;22266;52.340;4.962;2022-08-19T13:37:42;2.00;;;2.00;;
36221;SDS011;22266;52.340;4.962;2022-08-19T13:40:10;1.00;;;1.00;;
36221;SDS011;22266;52.340;4.962;2022-08-19T13:42:42;1.50;;;1.50;;
36221;SDS011;22266;52.340;4.962;2022-08-19T13:45:10;1.25;;;1.25;;
36221;SDS011;22266;52.340;4.962;2022-08-19T13:47:37;1.75;;;1.00;;
36221;SDS011;22266;52.340;4.962;2022-08-19T13:50:09;1.75;;;1.75;;
36221;SDS011;22266;52.340;4.962;2022-08-19T13:52:37;0.50;;;0.50;;
36221;SDS011;22266;52.340;4.962;2022-08-19T13:55:05;1.00;;;1.00;;
36221;SDS011;22266;52.340;4.962;2022-08-19T13:57:32;2.00;;;2.00;;
36221;SDS011;22266;52.340;4.962;2022-08-19T13:59:59;2.00;;;2.00;;
36221;SDS011;22266;52.340;4.962;2022-08-19T14:02:25;1.25;;;1.00;;
36221;SDS011;22266;52.340;4.962;2022-08-19T14:04:52;1.00;;;1.00;;
36221;SDS011;22266;52.340;4.962;2022-08-19T14:07:19;1.50;;;1.50;;
36221;SDS011;22266;52.340;4.962;2022-08-19T14:09:45;1.00;;;1.00;;
36221;SDS011;22266;52.340;4.962;2022-08-19T14:12:14;1.00;;;1.00;;
36221;SDS011;22266;52.340;4.962;2022-08-19T14:14:54;2.00;;;2.00;;
36221;SDS011;22266;52.340;4.962;2022-08-19T14:17:20;1.50;;;1.50;;
36221;SDS011;22266;52.340;4.962;2022-08-19T14:19:47;1.00;;;1.00;;
36221;SDS011;22266;52.340;4.962;2022-08-19T14:22:14;1.75;;;1.75;;
36221;SDS011;22266;52.340;4.962;2022-08-19T14:24:47;1.00;;;1.00;;
36221;SDS011;22266;52.340;4.962;2022-08-19T14:27:14;1.50;;;1.50;;
36221;SDS011;22266;52.340;4.962;2022-08-19T14:29:40;2.00;;;1.00;;
36221;SDS011;22266;52.340;4.962;2022-08-19T14:32:07;1.50;;;1.50;;
36221;SDS011;22266;52.340;4.962;2022-08-19T14:34:41;1.75;;;1.75;;
36221;SDS011;22266;52.340;4.962;2022-08-19T14:37:07;2.00;;;2.00;;
36221;SDS011;22266;52.340;4.962;2022-08-19T14:39:43;1.75;;;1.75;;
36221;SDS011;22266;52.340;4.962;2022-08-19T14:42:11;2.00;;;2.00;;
36221;SDS011;22266;52.340;4.962;2022-08-19T14:44:40;2.00;;;2.00;;
36221;SDS011;22266;52.340;4.962;2022-08-19T14:47:08;4.50;;;2.75;;
36221;SDS011;22266;52.340;4.962;2022-08-19T14:49:35;2.25;;;2.25;;
36221;SDS011;22266;52.340;4.962;2022-08-19T14:52:08;1.75;;;1.75;;
36221;SDS011;22266;52.340;4.962;2022-08-19T14:54:34;1.25;;;1.25;;
36221;SDS011;22266;52.340;4.962;2022-08-19T14:57:01;2.00;;;2.00;;
36221;SDS011;22266;52.340;4.962;2022-08-19T14:59:27;1.00;;;1.00;;